sensor_id;sensor_type;location;lat;lon;timestamp;temperature;humidity
47779;DHT22;33538;48.432;11.350;2023-12-20T00:01:33;4.10;99.90
47779;DHT22;33538;48.432;11.350;2023-12-20T00:04:00;4.10;99.90
47779;DHT22;33538;48.432;11.350;2023-12-20T00:06:27;4.10;99.90
47779;DHT22;33538;48.432;11.350;2023-12-20T00:08:54;4.10;99.90
47779;DHT22;33538;48.432;11.350;2023-12-20T00:11:22;4.10;99.90
47779;DHT22;33538;48.432;11.350;2023-12-20T00:13:49;4.10;99.90
47779;DHT22;33538;48.432;11.350;2023-12-20T00:16:17;4.10;99.90
47779;DHT22;33538;48.432;11.350;2023-12-20T00:18:44;4.10;99.90
47779;DHT22;33538;48.432;11.350;2023-12-20T00:21:11;4.10;99.90
47779;DHT22;33538;48.432;11.350;2023-12-20T00:23:38;4.10;99.90
47779;DHT22;33538;48.432;11.350;2023-12-20T00:26:05;4.10;99.90
47779;DHT22;33538;48.432;11.350;2023-12-20T00:28:33;4.10;99.90
47779;DHT22;33538;48.432;11.350;2023-12-20T00:31:00;4.10;99.90
47779;DHT22;33538;48.432;11.350;2023-12-20T00:33:26;4.10;99.90
47779;DHT22;33538;48.432;11.350;2023-12-20T00:35:53;4.10;99.90
47779;DHT22;33538;48.432;11.350;2023-12-20T00:38:20;4.20;99.90
47779;DHT22;33538;48.432;11.350;2023-12-20T00:40:47;4.20;99.90
47779;DHT22;33538;48.432;11.350;2023-12-20T00:43:14;4.20;99.90
47779;DHT22;33538;48.432;11.350;2023-12-20T00:45:42;4.20;99.90
47779;DHT22;33538;48.432;11.350;2023-12-20T00:48:09;4.20;99.90
47779;DHT22;33538;48.432;11.350;2023-12-20T00:50:36;4.20;99.90
47779;DHT22;33538;48.432;11.350;2023-12-20T00:53:03;4.20;99.90
47779;DHT22;33538;48.432;11.350;2023-12-20T00:55:30;4.20;99.90
47779;DHT22;33538;48.432;11.350;2023-12-20T00:57:57;4.20;99.90
47779;DHT22;33538;48.432;11.350;2023-12-20T01:00:23;4.20;99.90
47779;DHT22;33538;48.432;11.350;2023-12-20T01:02:51;4.20;99.90
47779;DHT22;33538;48.432;11.350;2023-12-20T01:05:18;4.20;99.90
47779;DHT22;33538;48.432;11.350;2023-12-20T01:07:45;4.30;99.90
47779;DHT22;33538;48.432;11.350;2023-12-20T01:10:13;4.30;99.90
47779;DHT22;33538;48.432;11.350;2023-12-20T01:12:39;4.30;99.90
47779;DHT22;33538;48.432;11.350;2023-12-20T01:15:07;4.30;99.90
47779;DHT22;33538;48.432;11.350;2023-12-20T01:17:34;4.30;99.90
47779;DHT22;33538;48.432;11.350;2023-12-20T01:20:02;4.30;99.90
47779;DHT22;33538;48.432;11.350;2023-12-20T01:22:29;4.30;99.90
47779;DHT22;33538;48.432;11.350;2023-12-20T01:24:56;4.30;99.90
47779;DHT22;33538;48.432;11.350;2023-12-20T01:27:22;4.30;99.90
47779;DHT22;33538;48.432;11.350;2023-12-20T01:29:49;4.30;99.90
47779;DHT22;33538;48.432;11.350;2023-12-20T01:32:16;4.30;99.90
47779;DHT22;33538;48.432;11.350;2023-12-20T01:34:43;4.30;99.90
47779;DHT22;33538;48.432;11.350;2023-12-20T01:37:11;4.30;99.90
47779;DHT22;33538;48.432;11.350;2023-12-20T01:39:38;4.30;99.90
47779;DHT22;33538;48.432;11.350;2023-12-20T01:42:05;4.30;99.90
47779;DHT22;33538;48.432;11.350;2023-12-20T01:44:32;4.30;99.90
47779;DHT22;33538;48.432;11.350;2023-12-20T01:46:58;4.30;99.90
47779;DHT22;33538;48.432;11.350;2023-12-20T01:49:26;4.30;99.90
47779;DHT22;33538;48.432;11.350;2023-12-20T01:51:53;4.30;99.90
47779;DHT22;33538;48.432;11.350;2023-12-20T01:54:22;4.30;99.90
47779;DHT22;33538;48.432;11.350;2023-12-20T01:56:50;4.30;99.90
47779;DHT22;33538;48.432;11.350;2023-12-20T01:59:18;4.30;99.90
47779;DHT22;33538;48.432;11.350;2023-12-20T02:01:45;4.30;99.90
47779;DHT22;33538;48.432;11.350;2023-12-20T02:04:13;4.30;99.90
47779;DHT22;33538;48.432;11.350;2023-12-20T02:06:40;4.30;99.90
47779;DHT22;33538;48.432;11.350;2023-12-20T02:09:07;4.30;99.90
47779;DHT22;33538;48.432;11.350;2023-12-20T02:11:36;4.30;99.90
47779;DHT22;33538;48.432;11.350;2023-12-20T02:14:03;4.30;99.90
47779;DHT22;33538;48.432;11.350;2023-12-20T02:16:29;4.30;99.90
47779;DHT22;33538;48.432;11.350;2023-12-20T02:18:56;4.30;99.90
47779;DHT22;33538;48.432;11.350;2023-12-20T02:21:32;4.30;99.90
47779;DHT22;33538;48.432;11.350;2023-12-20T02:23:58;4.30;99.90
47779;DHT22;33538;48.432;11.350;2023-12-20T02:26:25;4.30;99.90
47779;DHT22;33538;48.432;11.350;2023-12-20T02:28:52;4.30;99.90
47779;DHT22;33538;48.432;11.350;2023-12-20T02:31:20;4.30;99.90
47779;DHT22;33538;48.432;11.350;2023-12-20T02:33:47;4.30;99.90
47779;DHT22;33538;48.432;11.350;2023-12-20T02:36:14;4.30;99.90
47779;DHT22;33538;48.432;11.350;2023-12-20T02:38:42;4.30;99.90
47779;DHT22;33538;48.432;11.350;2023-12-20T02:41:09;4.30;99.90
47779;DHT22;33538;48.432;11.350;2023-12-20T02:43:36;4.30;99.90
47779;DHT22;33538;48.432;11.350;2023-12-20T02:46:03;4.30;99.90
47779;DHT22;33538;48.432;11.350;2023-12-20T02:48:30;4.30;99.90
47779;DHT22;33538;48.432;11.350;2023-12-20T02:50:56;4.30;99.90
47779;DHT22;33538;48.432;11.350;2023-12-20T02:53:23;4.30;99.90
47779;DHT22;33538;48.432;11.350;2023-12-20T02:55:51;4.30;99.90
47779;DHT22;33538;48.432;11.350;2023-12-20T02:58:18;4.40;99.90
47779;DHT22;33538;48.432;11.350;2023-12-20T03:00:45;4.30;99.90
47779;DHT22;33538;48.432;11.350;2023-12-20T03:03:12;4.30;99.90
47779;DHT22;33538;48.432;11.350;2023-12-20T03:05:39;4.30;99.90
47779;DHT22;33538;48.432;11.350;2023-12-20T03:08:06;4.30;99.90
47779;DHT22;33538;48.432;11.350;2023-12-20T03:10:33;4.30;99.90
47779;DHT22;33538;48.432;11.350;2023-12-20T03:13:01;4.30;99.90
47779;DHT22;33538;48.432;11.350;2023-12-20T03:15:28;4.30;99.90
47779;DHT22;33538;48.432;11.350;2023-12-20T03:17:54;4.30;99.90
47779;DHT22;33538;48.432;11.350;2023-12-20T03:20:21;4.30;99.90
47779;DHT22;33538;48.432;11.350;2023-12-20T03:22:48;4.30;99.90
47779;DHT22;33538;48.432;11.350;2023-12-20T03:25:15;4.30;99.90
47779;DHT22;33538;48.432;11.350;2023-12-20T03:27:42;4.30;99.90
47779;DHT22;33538;48.432;11.350;2023-12-20T03:30:11;4.30;99.90
47779;DHT22;33538;48.432;11.350;2023-12-20T03:32:38;4.30;99.90
47779;DHT22;33538;48.432;11.350;2023-12-20T03:35:05;4.30;99.90
47779;DHT22;33538;48.432;11.350;2023-12-20T03:37:32;4.30;99.90
47779;DHT22;33538;48.432;11.350;2023-12-20T03:39:59;4.30;99.90
47779;DHT22;33538;48.432;11.350;2023-12-20T03:42:26;4.40;99.90
47779;DHT22;33538;48.432;11.350;2023-12-20T03:44:53;4.30;99.90
47779;DHT22;33538;48.432;11.350;2023-12-20T03:47:21;4.40;99.90
47779;DHT22;33538;48.432;11.350;2023-12-20T03:49:48;4.40;99.90
47779;DHT22;33538;48.432;11.350;2023-12-20T03:52:15;4.40;99.90
47779;DHT22;33538;48.432;11.350;2023-12-20T03:54:42;4.40;99.90
47779;DHT22;33538;48.432;11.350;2023-12-20T03:57:08;4.40;99.90
47779;DHT22;33538;48.432;11.350;2023-12-20T03:59:35;4.40;99.90
47779;DHT22;33538;48.432;11.350;2023-12-20T04:02:02;4.40;99.90
47779;DHT22;33538;48.432;11.350;2023-12-20T04:04:30;4.40;99.90
47779;DHT22;33538;48.432;11.350;2023-12-20T04:06:58;4.30;99.90
47779;DHT22;33538;48.432;11.350;2023-12-20T04:09:25;4.40;99.90
47779;DHT22;33538;48.432;11.350;2023-12-20T04:11:51;4.40;99.90
47779;DHT22;33538;48.432;11.350;2023-12-20T04:14:18;4.40;99.90
47779;DHT22;33538;48.432;11.350;2023-12-20T04:16:46;4.40;99.90
47779;DHT22;33538;48.432;11.350;2023-12-20T04:19:13;4.40;99.90
47779;DHT22;33538;48.432;11.350;2023-12-20T04:21:42;4.40;99.90
47779;DHT22;33538;48.432;11.350;2023-12-20T04:24:08;4.40;99.90
47779;DHT22;33538;48.432;11.350;2023-12-20T04:26:35;4.40;99.90
47779;DHT22;33538;48.432;11.350;2023-12-20T04:29:02;4.40;99.90
47779;DHT22;33538;48.432;11.350;2023-12-20T04:31:29;4.40;99.90
47779;DHT22;33538;48.432;11.350;2023-12-20T04:33:56;4.40;99.90
47779;DHT22;33538;48.432;11.350;2023-12-20T04:36:22;4.40;99.90
47779;DHT22;33538;48.432;11.350;2023-12-20T04:38:50;4.40;99.90
47779;DHT22;33538;48.432;11.350;2023-12-20T04:41:17;4.40;99.90
47779;DHT22;33538;48.432;11.350;2023-12-20T04:43:44;4.40;99.90
47779;DHT22;33538;48.432;11.350;2023-12-20T04:46:11;4.40;99.90
47779;DHT22;33538;48.432;11.350;2023-12-20T04:48:38;4.40;99.90
47779;DHT22;33538;48.432;11.350;2023-12-20T04:51:05;4.40;99.90
47779;DHT22;33538;48.432;11.350;2023-12-20T04:53:32;4.40;99.90
47779;DHT22;33538;48.432;11.350;2023-12-20T04:56:00;4.40;99.90
47779;DHT22;33538;48.432;11.350;2023-12-20T04:58:27;4.40;99.90
47779;DHT22;33538;48.432;11.350;2023-12-20T05:00:54;4.40;99.90
47779;DHT22;33538;48.432;11.350;2023-12-20T05:03:21;4.40;99.90
47779;DHT22;33538;48.432;11.350;2023-12-20T05:05:48;4.40;99.90
47779;DHT22;33538;48.432;11.350;2023-12-20T05:08:14;4.40;99.90
47779;DHT22;33538;48.432;11.350;2023-12-20T05:10:41;4.40;99.90
47779;DHT22;33538;48.432;11.350;2023-12-20T05:13:09;4.40;99.90
47779;DHT22;33538;48.432;11.350;2023-12-20T05:15:36;4.40;99.90
47779;DHT22;33538;48.432;11.350;2023-12-20T05:18:04;4.40;99.90
47779;DHT22;33538;48.432;11.350;2023-12-20T05:20:31;4.40;99.90
47779;DHT22;33538;48.432;11.350;2023-12-20T05:22:58;4.40;99.90
47779;DHT22;33538;48.432;11.350;2023-12-20T05:25:25;4.50;99.90
47779;DHT22;33538;48.432;11.350;2023-12-20T05:27:52;4.50;99.90
47779;DHT22;33538;48.432;11.350;2023-12-20T05:30:20;4.50;99.90
47779;DHT22;33538;48.432;11.350;2023-12-20T05:32:47;4.50;99.90
47779;DHT22;33538;48.432;11.350;2023-12-20T05:35:14;4.50;99.90
47779;DHT22;33538;48.432;11.350;2023-12-20T05:37:41;4.50;99.90
47779;DHT22;33538;48.432;11.350;2023-12-20T05:40:09;4.50;99.90
47779;DHT22;33538;48.432;11.350;2023-12-20T05:42:36;4.50;99.90
47779;DHT22;33538;48.432;11.350;2023-12-20T05:45:03;4.50;99.90
47779;DHT22;33538;48.432;11.350;2023-12-20T05:47:32;4.50;99.90
47779;DHT22;33538;48.432;11.350;2023-12-20T05:49:59;4.50;99.90
47779;DHT22;33538;48.432;11.350;2023-12-20T05:52:25;4.50;99.90
47779;DHT22;33538;48.432;11.350;2023-12-20T05:54:52;4.50;99.90
47779;DHT22;33538;48.432;11.350;2023-12-20T05:57:19;4.50;99.90
47779;DHT22;33538;48.432;11.350;2023-12-20T05:59:46;4.50;99.90
47779;DHT22;33538;48.432;11.350;2023-12-20T06:02:13;4.50;99.90
47779;DHT22;33538;48.432;11.350;2023-12-20T06:04:43;4.50;99.90
47779;DHT22;33538;48.432;11.350;2023-12-20T06:07:11;4.50;99.90
47779;DHT22;33538;48.432;11.350;2023-12-20T06:09:38;4.50;99.90
47779;DHT22;33538;48.432;11.350;2023-12-20T06:12:06;4.50;99.90
47779;DHT22;33538;48.432;11.350;2023-12-20T06:14:33;4.50;99.90
47779;DHT22;33538;48.432;11.350;2023-12-20T06:17:00;4.50;99.90
47779;DHT22;33538;48.432;11.350;2023-12-20T06:19:27;4.50;99.90
47779;DHT22;33538;48.432;11.350;2023-12-20T06:21:55;4.50;99.90
47779;DHT22;33538;48.432;11.350;2023-12-20T06:24:22;4.50;99.90
47779;DHT22;33538;48.432;11.350;2023-12-20T06:26:49;4.50;99.90
47779;DHT22;33538;48.432;11.350;2023-12-20T06:29:16;4.50;99.90
47779;DHT22;33538;48.432;11.350;2023-12-20T06:31:43;4.50;99.90
47779;DHT22;33538;48.432;11.350;2023-12-20T06:34:10;4.50;99.90
47779;DHT22;33538;48.432;11.350;2023-12-20T06:36:37;4.50;99.90
47779;DHT22;33538;48.432;11.350;2023-12-20T06:39:05;4.50;99.90
47779;DHT22;33538;48.432;11.350;2023-12-20T06:41:32;4.50;99.90
47779;DHT22;33538;48.432;11.350;2023-12-20T06:43:58;4.50;99.90
47779;DHT22;33538;48.432;11.350;2023-12-20T06:46:25;4.50;99.90
47779;DHT22;33538;48.432;11.350;2023-12-20T06:48:52;4.50;99.90
47779;DHT22;33538;48.432;11.350;2023-12-20T06:51:19;4.50;99.90
47779;DHT22;33538;48.432;11.350;2023-12-20T06:53:46;4.50;99.90
47779;DHT22;33538;48.432;11.350;2023-12-20T06:56:14;4.50;99.90
47779;DHT22;33538;48.432;11.350;2023-12-20T06:58:45;4.50;99.90
47779;DHT22;33538;48.432;11.350;2023-12-20T07:01:12;4.50;99.90
47779;DHT22;33538;48.432;11.350;2023-12-20T07:03:39;4.50;99.90
47779;DHT22;33538;48.432;11.350;2023-12-20T07:06:06;4.50;99.90
47779;DHT22;33538;48.432;11.350;2023-12-20T07:08:33;4.50;99.90
47779;DHT22;33538;48.432;11.350;2023-12-20T07:11:00;4.50;99.90
47779;DHT22;33538;48.432;11.350;2023-12-20T07:13:29;4.50;99.90
47779;DHT22;33538;48.432;11.350;2023-12-20T07:15:56;4.50;99.90
47779;DHT22;33538;48.432;11.350;2023-12-20T07:18:23;4.50;99.90
47779;DHT22;33538;48.432;11.350;2023-12-20T07:20:50;4.50;99.90
47779;DHT22;33538;48.432;11.350;2023-12-20T07:23:17;4.50;99.90
47779;DHT22;33538;48.432;11.350;2023-12-20T07:25:43;4.50;99.90
47779;DHT22;33538;48.432;11.350;2023-12-20T07:28:10;4.50;99.90
47779;DHT22;33538;48.432;11.350;2023-12-20T07:30:39;4.50;99.90
47779;DHT22;33538;48.432;11.350;2023-12-20T07:33:06;4.50;99.90
47779;DHT22;33538;48.432;11.350;2023-12-20T07:35:32;4.50;99.90
47779;DHT22;33538;48.432;11.350;2023-12-20T07:37:59;4.50;99.90
47779;DHT22;33538;48.432;11.350;2023-12-20T07:40:26;4.50;99.90
47779;DHT22;33538;48.432;11.350;2023-12-20T07:42:53;4.50;99.90
47779;DHT22;33538;48.432;11.350;2023-12-20T07:45:20;4.50;99.90
47779;DHT22;33538;48.432;11.350;2023-12-20T07:47:48;4.50;99.90
47779;DHT22;33538;48.432;11.350;2023-12-20T07:50:15;4.50;99.90
47779;DHT22;33538;48.432;11.350;2023-12-20T07:52:43;4.50;99.90
47779;DHT22;33538;48.432;11.350;2023-12-20T07:55:09;4.50;99.90
47779;DHT22;33538;48.432;11.350;2023-12-20T07:57:36;4.50;99.90
47779;DHT22;33538;48.432;11.350;2023-12-20T08:00:04;4.50;99.90
47779;DHT22;33538;48.432;11.350;2023-12-20T08:02:31;4.50;99.90
47779;DHT22;33538;48.432;11.350;2023-12-20T08:05:00;4.50;99.90
47779;DHT22;33538;48.432;11.350;2023-12-20T08:07:26;4.50;99.90
47779;DHT22;33538;48.432;11.350;2023-12-20T08:09:53;4.50;99.90
47779;DHT22;33538;48.432;11.350;2023-12-20T08:12:20;4.50;99.90
47779;DHT22;33538;48.432;11.350;2023-12-20T08:14:47;4.50;99.90
47779;DHT22;33538;48.432;11.350;2023-12-20T08:17:14;4.50;99.90
47779;DHT22;33538;48.432;11.350;2023-12-20T08:19:40;4.50;99.90
47779;DHT22;33538;48.432;11.350;2023-12-20T08:22:09;4.50;99.90
47779;DHT22;33538;48.432;11.350;2023-12-20T08:24:36;4.50;99.90
47779;DHT22;33538;48.432;11.350;2023-12-20T08:27:03;4.50;99.90
47779;DHT22;33538;48.432;11.350;2023-12-20T08:29:30;4.50;99.90
47779;DHT22;33538;48.432;11.350;2023-12-20T08:31:58;4.50;99.90
47779;DHT22;33538;48.432;11.350;2023-12-20T08:34:26;4.50;99.90
47779;DHT22;33538;48.432;11.350;2023-12-20T08:36:53;4.50;99.90
47779;DHT22;33538;48.432;11.350;2023-12-20T08:39:21;4.50;99.90
47779;DHT22;33538;48.432;11.350;2023-12-20T08:41:48;4.50;99.90
47779;DHT22;33538;48.432;11.350;2023-12-20T08:44:15;4.50;99.90
47779;DHT22;33538;48.432;11.350;2023-12-20T08:46:43;4.50;99.90
47779;DHT22;33538;48.432;11.350;2023-12-20T08:49:10;4.50;99.90
47779;DHT22;33538;48.432;11.350;2023-12-20T08:51:37;4.50;99.90
47779;DHT22;33538;48.432;11.350;2023-12-20T08:54:04;4.50;99.90
47779;DHT22;33538;48.432;11.350;2023-12-20T08:56:32;4.50;99.90
47779;DHT22;33538;48.432;11.350;2023-12-20T08:58:59;4.50;99.90
47779;DHT22;33538;48.432;11.350;2023-12-20T09:01:26;4.50;99.90
47779;DHT22;33538;48.432;11.350;2023-12-20T09:03:53;4.50;99.90
47779;DHT22;33538;48.432;11.350;2023-12-20T09:06:20;4.50;99.90
47779;DHT22;33538;48.432;11.350;2023-12-20T09:08:47;4.50;99.90
47779;DHT22;33538;48.432;11.350;2023-12-20T09:11:13;4.60;99.90
47779;DHT22;33538;48.432;11.350;2023-12-20T09:13:42;4.50;99.90
47779;DHT22;33538;48.432;11.350;2023-12-20T09:16:09;4.60;99.90
47779;DHT22;33538;48.432;11.350;2023-12-20T09:18:36;4.50;99.90
47779;DHT22;33538;48.432;11.350;2023-12-20T09:21:03;4.60;99.90
47779;DHT22;33538;48.432;11.350;2023-12-20T09:23:32;4.60;99.90
47779;DHT22;33538;48.432;11.350;2023-12-20T09:25:59;4.60;99.90
47779;DHT22;33538;48.432;11.350;2023-12-20T09:28:26;4.60;99.90
47779;DHT22;33538;48.432;11.350;2023-12-20T09:30:54;4.60;99.90
47779;DHT22;33538;48.432;11.350;2023-12-20T09:33:22;4.60;99.90
47779;DHT22;33538;48.432;11.350;2023-12-20T09:35:48;4.60;99.90
47779;DHT22;33538;48.432;11.350;2023-12-20T09:38:16;4.60;99.90
47779;DHT22;33538;48.432;11.350;2023-12-20T09:40:42;4.60;99.90
47779;DHT22;33538;48.432;11.350;2023-12-20T09:43:11;4.60;99.90
47779;DHT22;33538;48.432;11.350;2023-12-20T09:45:40;4.60;99.90
47779;DHT22;33538;48.432;11.350;2023-12-20T09:48:11;4.60;99.90
47779;DHT22;33538;48.432;11.350;2023-12-20T09:50:38;4.60;99.90
47779;DHT22;33538;48.432;11.350;2023-12-20T09:53:05;4.60;99.90
47779;DHT22;33538;48.432;11.350;2023-12-20T09:55:34;4.60;99.90
47779;DHT22;33538;48.432;11.350;2023-12-20T09:58:02;4.60;99.90
47779;DHT22;33538;48.432;11.350;2023-12-20T10:00:29;4.60;99.90
47779;DHT22;33538;48.432;11.350;2023-12-20T10:02:57;4.60;99.90
47779;DHT22;33538;48.432;11.350;2023-12-20T10:05:27;4.70;99.90
47779;DHT22;33538;48.432;11.350;2023-12-20T10:07:54;4.70;99.90
47779;DHT22;33538;48.432;11.350;2023-12-20T10:10:22;4.70;99.90
47779;DHT22;33538;48.432;11.350;2023-12-20T10:13:05;4.70;99.90
47779;DHT22;33538;48.432;11.350;2023-12-20T10:15:32;4.70;99.90
47779;DHT22;33538;48.432;11.350;2023-12-20T10:18:00;4.70;99.90
47779;DHT22;33538;48.432;11.350;2023-12-20T10:20:30;4.70;99.90
47779;DHT22;33538;48.432;11.350;2023-12-20T10:22:58;4.70;99.90
47779;DHT22;33538;48.432;11.350;2023-12-20T10:25:26;4.70;99.90
47779;DHT22;33538;48.432;11.350;2023-12-20T10:28:09;4.70;99.90
47779;DHT22;33538;48.432;11.350;2023-12-20T10:30:36;4.70;99.90
47779;DHT22;33538;48.432;11.350;2023-12-20T10:33:04;4.70;99.90
47779;DHT22;33538;48.432;11.350;2023-12-20T10:35:33;4.70;99.90
47779;DHT22;33538;48.432;11.350;2023-12-20T10:38:03;4.70;99.90
47779;DHT22;33538;48.432;11.350;2023-12-20T10:40:31;4.70;99.90
47779;DHT22;33538;48.432;11.350;2023-12-20T10:42:58;4.70;99.90
47779;DHT22;33538;48.432;11.350;2023-12-20T10:45:26;4.70;99.90
47779;DHT22;33538;48.432;11.350;2023-12-20T10:47:52;4.70;99.90
47779;DHT22;33538;48.432;11.350;2023-12-20T10:50:19;4.70;99.90
47779;DHT22;33538;48.432;11.350;2023-12-20T10:52:49;4.70;99.90
47779;DHT22;33538;48.432;11.350;2023-12-20T10:55:17;4.70;99.90
47779;DHT22;33538;48.432;11.350;2023-12-20T10:57:45;4.70;99.90
47779;DHT22;33538;48.432;11.350;2023-12-20T11:00:14;4.70;99.90
47779;DHT22;33538;48.432;11.350;2023-12-20T11:02:42;4.70;99.90
47779;DHT22;33538;48.432;11.350;2023-12-20T11:05:16;4.70;99.90
47779;DHT22;33538;48.432;11.350;2023-12-20T11:07:50;4.70;99.90
47779;DHT22;33538;48.432;11.350;2023-12-20T11:10:20;4.70;99.90
47779;DHT22;33538;48.432;11.350;2023-12-20T11:12:53;4.70;99.90
47779;DHT22;33538;48.432;11.350;2023-12-20T11:15:21;4.70;99.90
47779;DHT22;33538;48.432;11.350;2023-12-20T11:17:54;4.70;99.90
47779;DHT22;33538;48.432;11.350;2023-12-20T11:20:22;4.70;99.90
47779;DHT22;33538;48.432;11.350;2023-12-20T11:22:54;4.70;99.90
47779;DHT22;33538;48.432;11.350;2023-12-20T11:25:22;4.70;99.90
47779;DHT22;33538;48.432;11.350;2023-12-20T11:28:07;4.70;99.90
47779;DHT22;33538;48.432;11.350;2023-12-20T11:30:41;4.70;99.90
47779;DHT22;33538;48.432;11.350;2023-12-20T11:33:08;4.70;99.90
47779;DHT22;33538;48.432;11.350;2023-12-20T11:35:35;4.80;99.90
47779;DHT22;33538;48.432;11.350;2023-12-20T11:38:04;4.70;99.90
47779;DHT22;33538;48.432;11.350;2023-12-20T11:40:34;4.70;99.90
47779;DHT22;33538;48.432;11.350;2023-12-20T11:43:02;4.80;99.90
47779;DHT22;33538;48.432;11.350;2023-12-20T11:45:29;4.80;99.90
47779;DHT22;33538;48.432;11.350;2023-12-20T11:47:57;4.70;99.90
47779;DHT22;33538;48.432;11.350;2023-12-20T11:50:24;4.80;99.90
47779;DHT22;33538;48.432;11.350;2023-12-20T11:52:53;4.80;99.90
47779;DHT22;33538;48.432;11.350;2023-12-20T11:55:21;4.80;99.90
47779;DHT22;33538;48.432;11.350;2023-12-20T11:57:48;4.80;99.90
47779;DHT22;33538;48.432;11.350;2023-12-20T12:00:17;4.80;99.90
47779;DHT22;33538;48.432;11.350;2023-12-20T12:02:55;4.80;99.90
47779;DHT22;33538;48.432;11.350;2023-12-20T12:05:22;4.80;99.90
47779;DHT22;33538;48.432;11.350;2023-12-20T12:07:49;4.80;99.90
47779;DHT22;33538;48.432;11.350;2023-12-20T12:10:16;4.80;99.90
47779;DHT22;33538;48.432;11.350;2023-12-20T12:12:44;4.80;99.90
47779;DHT22;33538;48.432;11.350;2023-12-20T12:15:12;4.80;99.90
47779;DHT22;33538;48.432;11.350;2023-12-20T12:17:39;4.80;99.90
47779;DHT22;33538;48.432;11.350;2023-12-20T12:20:07;4.80;99.90
47779;DHT22;33538;48.432;11.350;2023-12-20T12:22:34;4.80;99.90
47779;DHT22;33538;48.432;11.350;2023-12-20T12:25:09;4.80;99.90
47779;DHT22;33538;48.432;11.350;2023-12-20T12:27:37;4.80;99.90
47779;DHT22;33538;48.432;11.350;2023-12-20T12:30:06;4.80;99.90
47779;DHT22;33538;48.432;11.350;2023-12-20T12:32:33;4.80;99.90
47779;DHT22;33538;48.432;11.350;2023-12-20T12:35:02;4.90;99.90
47779;DHT22;33538;48.432;11.350;2023-12-20T12:37:29;4.80;99.90
47779;DHT22;33538;48.432;11.350;2023-12-20T12:39:57;4.80;99.90
47779;DHT22;33538;48.432;11.350;2023-12-20T12:42:23;4.80;99.90
47779;DHT22;33538;48.432;11.350;2023-12-20T12:44:50;4.80;99.90
47779;DHT22;33538;48.432;11.350;2023-12-20T12:47:19;4.80;99.90
47779;DHT22;33538;48.432;11.350;2023-12-20T12:49:45;4.80;99.90
47779;DHT22;33538;48.432;11.350;2023-12-20T12:52:12;4.80;99.90
47779;DHT22;33538;48.432;11.350;2023-12-20T12:54:39;4.80;99.90
47779;DHT22;33538;48.432;11.350;2023-12-20T12:57:06;4.90;99.90
47779;DHT22;33538;48.432;11.350;2023-12-20T12:59:33;4.90;99.90
47779;DHT22;33538;48.432;11.350;2023-12-20T13:02:04;4.90;99.90
47779;DHT22;33538;48.432;11.350;2023-12-20T13:04:32;4.90;99.90
47779;DHT22;33538;48.432;11.350;2023-12-20T13:06:59;4.80;99.90
47779;DHT22;33538;48.432;11.350;2023-12-20T13:09:26;4.80;99.90
47779;DHT22;33538;48.432;11.350;2023-12-20T13:11:53;4.80;99.90
47779;DHT22;33538;48.432;11.350;2023-12-20T13:14:21;4.80;99.90
47779;DHT22;33538;48.432;11.350;2023-12-20T13:16:48;4.90;99.90
47779;DHT22;33538;48.432;11.350;2023-12-20T13:19:15;4.90;99.90
47779;DHT22;33538;48.432;11.350;2023-12-20T13:21:43;4.90;99.90
47779;DHT22;33538;48.432;11.350;2023-12-20T13:24:10;4.90;99.90
47779;DHT22;33538;48.432;11.350;2023-12-20T13:26:37;4.90;99.90
47779;DHT22;33538;48.432;11.350;2023-12-20T13:29:04;4.90;99.90
47779;DHT22;33538;48.432;11.350;2023-12-20T13:31:31;4.90;99.90
47779;DHT22;33538;48.432;11.350;2023-12-20T13:33:58;4.90;99.90
47779;DHT22;33538;48.432;11.350;2023-12-20T13:36:25;4.90;99.90
47779;DHT22;33538;48.432;11.350;2023-12-20T13:38:53;4.90;99.90
47779;DHT22;33538;48.432;11.350;2023-12-20T13:41:20;4.90;99.90
47779;DHT22;33538;48.432;11.350;2023-12-20T13:43:47;4.90;99.90
47779;DHT22;33538;48.432;11.350;2023-12-20T13:46:14;4.90;99.90
47779;DHT22;33538;48.432;11.350;2023-12-20T13:48:41;4.90;99.90
47779;DHT22;33538;48.432;11.350;2023-12-20T13:51:08;4.90;99.90
47779;DHT22;33538;48.432;11.350;2023-12-20T13:53:35;4.90;99.90
47779;DHT22;33538;48.432;11.350;2023-12-20T13:56:04;4.90;99.90
47779;DHT22;33538;48.432;11.350;2023-12-20T13:58:31;4.90;99.90
47779;DHT22;33538;48.432;11.350;2023-12-20T14:00:57;4.90;99.90
47779;DHT22;33538;48.432;11.350;2023-12-20T14:03:24;4.90;99.90
47779;DHT22;33538;48.432;11.350;2023-12-20T14:05:51;4.90;99.90
47779;DHT22;33538;48.432;11.350;2023-12-20T14:08:18;4.90;99.90
47779;DHT22;33538;48.432;11.350;2023-12-20T14:10:45;4.90;99.90
47779;DHT22;33538;48.432;11.350;2023-12-20T14:13:13;4.90;99.90
47779;DHT22;33538;48.432;11.350;2023-12-20T14:15:40;4.90;99.90
47779;DHT22;33538;48.432;11.350;2023-12-20T14:18:07;4.90;99.90
47779;DHT22;33538;48.432;11.350;2023-12-20T14:20:34;4.90;99.90
47779;DHT22;33538;48.432;11.350;2023-12-20T14:23:01;4.90;99.90
47779;DHT22;33538;48.432;11.350;2023-12-20T14:25:28;4.90;99.90
47779;DHT22;33538;48.432;11.350;2023-12-20T14:27:59;4.90;99.90
47779;DHT22;33538;48.432;11.350;2023-12-20T14:30:27;4.90;99.90
47779;DHT22;33538;48.432;11.350;2023-12-20T14:32:54;4.90;99.90
47779;DHT22;33538;48.432;11.350;2023-12-20T14:35:21;4.90;99.90
47779;DHT22;33538;48.432;11.350;2023-12-20T14:37:48;4.90;99.90
47779;DHT22;33538;48.432;11.350;2023-12-20T14:40:15;4.90;99.90
47779;DHT22;33538;48.432;11.350;2023-12-20T14:42:43;4.90;99.90
47779;DHT22;33538;48.432;11.350;2023-12-20T14:45:10;4.90;99.90
47779;DHT22;33538;48.432;11.350;2023-12-20T14:47:38;4.90;99.90
47779;DHT22;33538;48.432;11.350;2023-12-20T14:50:07;4.90;99.90
47779;DHT22;33538;48.432;11.350;2023-12-20T14:52:36;4.90;99.90
47779;DHT22;33538;48.432;11.350;2023-12-20T14:55:04;4.90;99.90
47779;DHT22;33538;48.432;11.350;2023-12-20T14:57:30;4.90;99.90
47779;DHT22;33538;48.432;11.350;2023-12-20T14:59:58;4.80;99.90
47779;DHT22;33538;48.432;11.350;2023-12-20T15:02:25;4.80;99.90
47779;DHT22;33538;48.432;11.350;2023-12-20T15:04:53;4.90;99.90
47779;DHT22;33538;48.432;11.350;2023-12-20T15:07:20;4.80;99.90
47779;DHT22;33538;48.432;11.350;2023-12-20T15:09:47;4.90;99.90
47779;DHT22;33538;48.432;11.350;2023-12-20T15:12:14;4.80;99.90
47779;DHT22;33538;48.432;11.350;2023-12-20T15:14:41;4.80;99.90
47779;DHT22;33538;48.432;11.350;2023-12-20T15:17:08;4.80;99.90
47779;DHT22;33538;48.432;11.350;2023-12-20T15:19:34;4.80;99.90
47779;DHT22;33538;48.432;11.350;2023-12-20T15:22:03;4.80;99.90
47779;DHT22;33538;48.432;11.350;2023-12-20T15:24:30;4.80;99.90
47779;DHT22;33538;48.432;11.350;2023-12-20T15:26:57;4.80;99.90
47779;DHT22;33538;48.432;11.350;2023-12-20T15:29:23;4.80;99.90
47779;DHT22;33538;48.432;11.350;2023-12-20T15:31:50;4.70;99.90